Maritime Kelly Anne — 9V3274 — position and weather

sailwx.info

Track history (hours):
 
Tides and Currents Weather Stations Pressure Air Temp Water Temp Dewpoint Dewpoint Depression Visibility Wind Speed Wind Dir Waves Ship Positions

Maritime Kelly Anne

Last reported at 2018-Jul-22 14:16 UTC. Time now 2018-Jul-23 11:36 UTC.
Position N 30°07' W 090°57'.

Length 180 m; draft 8 m.

Type: Ship (hazmat cat B). MMSI: 566312000.

Date/timePositionNaut miles runAvg speedWind from/ knotsBaromVisibWave heightAir tempDewpointWater temp
2018-Jul-22 14:16N 30°07' W 090°57'2 6.0
2018-Jul-22 13:57N 30°08' W 090°55'4 9.0
2018-Jul-22 13:30N 30°04' W 090°54'4 7.2
2018-Jul-22 13:00N 30°02' W 090°50'2 3.0
2018-Jul-22 12:29N 30°01' W 090°50'2 4.1
2018-Jul-22 11:59N 29°59' W 090°48'4 8.3
2018-Jul-22 11:30N 30°01' W 090°44'5 9.1
2018-Jul-22 11:00N 30°03' W 090°40'4 6.9
2018-Jul-22 10:30N 30°03' W 090°35'4 8.7
2018-Jul-22 10:00N 30°03' W 090°31'4 7.0
2018-Jul-22 09:29N 30°00' W 090°28'4 8.0
2018-Jul-22 08:59N 29°59' W 090°24'4 7.7
2018-Jul-22 08:30N 29°56' W 090°21'5 0.1
2018-Jul-20 13:55N 29°58' W 090°15'0 0.0
2018-Jul-20 13:10N 29°58' W 090°15'0 0.0
2018-Jul-20 12:58N 29°58' W 090°15'0 0.0
2018-Jul-20 12:28N 29°58' W 090°15'0 0.0
2018-Jul-20 11:58N 29°58' W 090°15'0 0.0
2018-Jul-20 11:28N 29°58' W 090°15'0 0.0
2018-Jul-20 10:58N 29°58' W 090°15'0 0.0
2018-Jul-20 10:28N 29°58' W 090°15'0 0.0
2018-Jul-20 09:58N 29°58' W 090°15'0 0.0
2018-Jul-20 09:28N 29°58' W 090°15'0 0.0
2018-Jul-20 08:58N 29°58' W 090°15'0 0.0
2018-Jul-20 08:22N 29°58' W 090°15'0 0.0
2018-Jul-20 07:58N 29°58' W 090°15'0 0.0
2018-Jul-20 07:22N 29°58' W 090°15'0 0.0
2018-Jul-20 06:58N 29°58' W 090°15'0 0.0
2018-Jul-20 06:28N 29°58' W 090°15'0 0.0
2018-Jul-20 05:52N 29°58' W 090°15'0 0.0
2018-Jul-20 05:22N 29°58' W 090°15'13 0.3
2018-Jul-18 09:29N 29°57' W 090°01'4 9.1
2018-Jul-18 09:00N 29°55' W 089°56'3 6.3
2018-Jul-18 08:31N 29°52' W 089°56'9 8.5
2018-Jul-18 07:31N 29°45' W 090°00'011.0
2018-Jul-18 07:30N 29°44' W 090°00'  
Track history (hours):
 
Tides and Currents Weather Stations Pressure Air Temp Water Temp Dewpoint Dewpoint Depression Visibility Wind Speed Wind Dir Waves Ship Positions

Maritime Kelly Anne

Last reported at 2018-Jul-22 14:16 UTC. Time now 2018-Jul-23 11:36 UTC.
Position N 30°07' W 090°57'.

Length 180 m; draft 8 m.

Type: Ship (hazmat cat B). MMSI: 566312000.

Date/timePositionNaut miles runAvg speedWind from/ knotsBaromVisibWave heightAir tempDewpointWater temp
2018-Jul-22 14:16N 30°07' W 090°57'2 6.0
2018-Jul-22 13:57N 30°08' W 090°55'4 9.0
2018-Jul-22 13:30N 30°04' W 090°54'4 7.2
2018-Jul-22 13:00N 30°02' W 090°50'2 3.0
2018-Jul-22 12:29N 30°01' W 090°50'2 4.1
2018-Jul-22 11:59N 29°59' W 090°48'4 8.3
2018-Jul-22 11:30N 30°01' W 090°44'5 9.1
2018-Jul-22 11:00N 30°03' W 090°40'4 6.9
2018-Jul-22 10:30N 30°03' W 090°35'4 8.7
2018-Jul-22 10:00N 30°03' W 090°31'4 7.0
2018-Jul-22 09:29N 30°00' W 090°28'4 8.0
2018-Jul-22 08:59N 29°59' W 090°24'4 7.7
2018-Jul-22 08:30N 29°56' W 090°21'5 0.1
2018-Jul-20 13:55N 29°58' W 090°15'0 0.0
2018-Jul-20 13:10N 29°58' W 090°15'0 0.0
2018-Jul-20 12:58N 29°58' W 090°15'0 0.0
2018-Jul-20 12:28N 29°58' W 090°15'0 0.0
2018-Jul-20 11:58N 29°58' W 090°15'0 0.0
2018-Jul-20 11:28N 29°58' W 090°15'0 0.0
2018-Jul-20 10:58N 29°58' W 090°15'0 0.0
2018-Jul-20 10:28N 29°58' W 090°15'0 0.0
2018-Jul-20 09:58N 29°58' W 090°15'0 0.0
2018-Jul-20 09:28N 29°58' W 090°15'0 0.0
2018-Jul-20 08:58N 29°58' W 090°15'0 0.0
2018-Jul-20 08:22N 29°58' W 090°15'0 0.0
2018-Jul-20 07:58N 29°58' W 090°15'0 0.0
2018-Jul-20 07:22N 29°58' W 090°15'0 0.0
2018-Jul-20 06:58N 29°58' W 090°15'0 0.0
2018-Jul-20 06:28N 29°58' W 090°15'0 0.0
2018-Jul-20 05:52N 29°58' W 090°15'0 0.0
2018-Jul-20 05:22N 29°58' W 090°15'13 0.3
2018-Jul-18 09:29N 29°57' W 090°01'4 9.1
2018-Jul-18 09:00N 29°55' W 089°56'3 6.3
2018-Jul-18 08:31N 29°52' W 089°56'9 8.5
2018-Jul-18 07:31N 29°45' W 090°00'011.0
2018-Jul-18 07:30N 29°44' W 090°00'  

Dump ship's entire track history